Time;durP1;ratioP1;P1;durP2;ratioP2;P2;SDS_P1;SDS_P2;PMS_P1;PMS_P2;Temp;Humidity;BMP_temperature;BMP_pressure;BME280_temperature;BME280_humidity;BME280_pressure;Samples;Min_cycle;Max_cycle;Signal;HPM_P1;HPM_P2
2023/05/01 00:01:07;;;;;;;13.32;12.07;;;;;;;;;;10053380;28;20052;-69
2023/05/01 00:06:04;;;;;;;16.88;12.85;;;;;;;;;;10044770;28;20050;-69
2023/05/01 00:11:01;;;;;;;15.55;13.75;;;;;;;;;;10051422;28;20052;-69
2023/05/01 00:15:54;;;;;;;14.45;13.13;;;;;;;;;;10051773;28;20054;-69
2023/05/01 00:20:49;;;;;;;15.98;12.82;;;;;;;;;;10036939;28;20061;-69
2023/05/01 00:25:43;;;;;;;13.90;12.60;;;;;;;;;;10035539;28;20112;-69
2023/05/01 00:30:37;;;;;;;14.18;12.77;;;;;;;;;;10047765;28;20058;-69
2023/05/01 00:35:30;;;;;;;17.27;14.10;;;;;;;;;;10047251;28;20049;-69
2023/05/01 00:40:24;;;;;;;15.82;14.20;;;;;;;;;;10048910;28;20050;-69
2023/05/01 00:45:18;;;;;;;16.33;14.63;;;;;;;;;;10025410;28;20710;-69
2023/05/01 00:50:12;;;;;;;14.57;13.05;;;;;;;;;;10042875;28;20053;-68
2023/05/01 00:55:06;;;;;;;22.08;15.90;;;;;;;;;;10043615;28;20084;-69
2023/05/01 01:00:00;;;;;;;14.73;13.23;;;;;;;;;;10064491;28;20148;-69
2023/05/01 01:04:53;;;;;;;14.05;12.65;;;;;;;;;;10037611;28;20412;-69
2023/05/01 01:10:26;;;;;;;15.70;13.25;;;;;;;;;;10042691;28;20049;-70
2023/05/01 01:15:44;;;;;;;14.95;12.10;;;;;;;;;;10077366;28;20054;-69
2023/05/01 01:21:09;;;;;;;13.55;12.15;;;;;;;;;;10033226;28;20148;-68
2023/05/01 01:26:29;;;;;;;14.48;12.98;;;;;;;;;;10045386;28;20057;-69
2023/05/01 01:31:52;;;;;;;15.60;12.32;;;;;;;;;;10027789;28;20061;-69
2023/05/01 01:36:54;;;;;;;16.77;13.15;;;;;;;;;;10043460;28;20598;-69
2023/05/01 01:41:49;;;;;;;14.18;12.65;;;;;;;;;;10048410;28;20438;-69
2023/05/01 01:46:42;;;;;;;12.38;11.18;;;;;;;;;;10042478;28;20113;-69
2023/05/01 01:51:38;;;;;;;14.00;12.60;;;;;;;;;;10063168;28;20057;-69
2023/05/01 01:56:33;;;;;;;14.32;12.90;;;;;;;;;;10046196;28;20053;-69
2023/05/01 02:01:26;;;;;;;15.30;12.20;;;;;;;;;;10060469;28;20053;-69
2023/05/01 02:06:20;;;;;;;15.05;13.55;;;;;;;;;;10057346;28;20050;-69
2023/05/01 02:11:15;;;;;;;12.27;10.93;;;;;;;;;;10054699;28;20045;-70
2023/05/01 02:16:08;;;;;;;14.05;12.73;;;;;;;;;;10039325;28;20608;-69
2023/05/01 02:21:02;;;;;;;14.68;13.18;;;;;;;;;;10048518;28;20049;-69
2023/05/01 02:26:02;;;;;;;16.60;13.27;;;;;;;;;;10036517;28;20426;-69
2023/05/01 02:30:57;;;;;;;13.13;11.82;;;;;;;;;;10055994;28;20054;-69
2023/05/01 02:35:54;;;;;;;13.25;11.98;;;;;;;;;;10031543;28;20100;-69
2023/05/01 02:40:51;;;;;;;16.25;12.10;;;;;;;;;;10030052;28;20050;-70
2023/05/01 02:45:43;;;;;;;14.50;12.63;;;;;;;;;;10044120;28;20144;-69
2023/05/01 02:50:39;;;;;;;14.00;11.85;;;;;;;;;;10048491;28;20064;-70
2023/05/01 02:55:33;;;;;;;14.38;12.68;;;;;;;;;;10032018;28;20138;-69
2023/05/01 03:00:27;;;;;;;12.95;11.57;;;;;;;;;;10030549;28;20133;-69
2023/05/01 03:05:20;;;;;;;14.45;12.30;;;;;;;;;;10037383;28;20071;-69
2023/05/01 03:10:12;;;;;;;13.85;12.45;;;;;;;;;;10061703;28;20033;-70
2023/05/01 03:15:11;;;;;;;16.55;14.05;;;;;;;;;;10062317;28;20448;-70
2023/05/01 03:20:09;;;;;;;17.17;15.57;;;;;;;;;;10039096;28;20123;-69
2023/05/01 03:25:05;;;;;;;17.85;15.93;;;;;;;;;;10049524;28;20049;-69
2023/05/01 03:29:58;;;;;;;16.23;14.38;;;;;;;;;;10055157;28;20056;-70
2023/05/01 03:34:54;;;;;;;20.13;15.93;;;;;;;;;;10055667;28;20055;-70
2023/05/01 03:39:46;;;;;;;16.65;14.90;;;;;;;;;;10050153;28;20049;-70
2023/05/01 03:44:58;;;;;;;17.17;15.32;;;;;;;;;;10057548;28;20057;-70
2023/05/01 03:49:52;;;;;;;16.45;14.70;;;;;;;;;;10045468;28;20497;-69
2023/05/01 03:54:46;;;;;;;16.73;14.50;;;;;;;;;;10057538;28;20050;-69
2023/05/01 03:59:46;;;;;;;21.08;14.20;;;;;;;;;;10048719;28;20821;-70
2023/05/01 04:04:40;;;;;;;19.27;15.60;;;;;;;;;;10043149;28;20053;-70
2023/05/01 04:09:33;;;;;;;19.48;15.68;;;;;;;;;;10051081;28;20131;-70
2023/05/01 04:14:26;;;;;;;17.25;15.55;;;;;;;;;;10032279;28;20457;-69
2023/05/01 04:19:20;;;;;;;16.80;15.18;;;;;;;;;;10033902;28;20417;-69
2023/05/01 04:24:21;;;;;;;15.23;13.65;;;;;;;;;;10035420;28;20049;-70
2023/05/01 04:29:14;;;;;;;15.32;12.88;;;;;;;;;;10051885;28;20045;-70
2023/05/01 04:34:10;;;;;;;12.73;11.40;;;;;;;;;;10034525;28;20104;-69
2023/05/01 04:39:06;;;;;;;12.02;10.82;;;;;;;;;;10028824;28;20053;-70
2023/05/01 04:44:01;;;;;;;20.42;11.57;;;;;;;;;;10040717;28;20050;-70
2023/05/01 04:48:55;;;;;;;11.77;9.20;;;;;;;;;;10038644;28;20524;-69
2023/05/01 04:53:49;;;;;;;12.52;9.23;;;;;;;;;;10036856;28;20045;-70
2023/05/01 04:58:47;;;;;;;12.77;9.90;;;;;;;;;;10046742;28;20050;-70
2023/05/01 05:03:45;;;;;;;10.80;8.70;;;;;;;;;;10052182;28;20057;-69
2023/05/01 05:08:42;;;;;;;9.50;8.48;;;;;;;;;;10036888;28;20050;-70
2023/05/01 05:13:36;;;;;;;9.80;8.55;;;;;;;;;;10036016;28;20523;-70
2023/05/01 05:18:35;;;;;;;;;;;;;;;;;;10034902;28;20050;-69
2023/05/01 05:23:28;;;;;;;10.32;8.30;;;;;;;;;;10022588;28;20012;-69
2023/05/01 05:28:22;;;;;;;8.75;7.35;;;;;;;;;;10051556;28;20454;-72
2023/05/01 05:33:16;;;;;;;9.45;7.65;;;;;;;;;;10048390;28;20142;-72
2023/05/01 05:38:09;;;;;;;8.35;7.50;;;;;;;;;;10050843;28;20145;-72
2023/05/01 05:43:05;;;;;;;9.15;7.68;;;;;;;;;;10054952;28;20054;-72
2023/05/01 05:47:59;;;;;;;8.15;7.03;;;;;;;;;;10049801;28;20083;-72
2023/05/01 05:52:53;;;;;;;8.88;7.70;;;;;;;;;;10047037;28;20116;-71
2023/05/01 05:57:47;;;;;;;8.43;7.55;;;;;;;;;;10048381;28;20054;-72
2023/05/01 06:02:40;;;;;;;9.38;7.50;;;;;;;;;;10041551;28;20057;-72
2023/05/01 06:07:34;;;;;;;8.25;7.20;;;;;;;;;;10047830;28;20054;-71
2023/05/01 06:12:28;;;;;;;8.52;6.05;;;;;;;;;;10046518;28;20045;-72
2023/05/01 06:17:24;;;;;;;15.13;6.35;;;;;;;;;;10056846;28;20085;-71
2023/05/01 06:22:20;;;;;;;7.00;5.97;;;;;;;;;;10047484;28;20472;-72
2023/05/01 06:27:29;;;;;;;13.05;8.35;;;;;;;;;;10026901;28;20101;-70
2023/05/01 06:32:22;;;;;;;34.33;18.40;;;;;;;;;;10052569;28;20479;-69
2023/05/01 06:37:15;;;;;;;28.55;15.35;;;;;;;;;;10043296;28;20524;-69
2023/05/01 06:42:10;;;;;;;19.13;9.73;;;;;;;;;;10061104;28;20049;-68
2023/05/01 06:47:04;;;;;;;15.25;9.18;;;;;;;;;;10052671;28;20054;-69
2023/05/01 06:51:57;;;;;;;11.48;8.32;;;;;;;;;;10050262;28;20509;-69
2023/05/01 06:56:50;;;;;;;9.70;7.80;;;;;;;;;;10061553;28;20062;-69
2023/05/01 07:01:44;;;;;;;8.23;6.72;;;;;;;;;;10062302;28;20417;-70
2023/05/01 07:06:37;;;;;;;6.97;6.20;;;;;;;;;;10049448;28;20038;-68
2023/05/01 07:11:32;;;;;;;8.05;6.53;;;;;;;;;;10037027;28;20053;-68
2023/05/01 07:16:26;;;;;;;7.85;6.40;;;;;;;;;;10049958;28;20107;-66
2023/05/01 07:21:20;;;;;;;7.90;6.43;;;;;;;;;;10056467;28;20056;-67
2023/05/01 07:26:14;;;;;;;10.48;7.22;;;;;;;;;;10051275;28;20055;-66
2023/05/01 07:31:09;;;;;;;11.45;7.40;;;;;;;;;;10047972;28;20045;-65
2023/05/01 07:36:04;;;;;;;10.32;7.47;;;;;;;;;;10046368;28;20053;-66
2023/05/01 07:40:57;;;;;;;7.50;6.78;;;;;;;;;;10051477;28;20049;-66
2023/05/01 07:45:59;;;;;;;8.32;7.53;;;;;;;;;;10049498;28;20481;-66
2023/05/01 07:50:52;;;;;;;9.55;8.52;;;;;;;;;;10053201;28;20061;-66
2023/05/01 07:55:47;;;;;;;7.80;7.07;;;;;;;;;;10053697;28;20054;-68
2023/05/01 08:00:40;;;;;;;8.70;7.90;;;;;;;;;;10057247;28;20053;-68
2023/05/01 08:05:33;;;;;;;10.70;8.20;;;;;;;;;;10055067;28;20144;-68
2023/05/01 08:10:28;;;;;;;9.45;8.55;;;;;;;;;;10040041;28;20060;-68
2023/05/01 08:15:21;;;;;;;9.45;8.55;;;;;;;;;;10040633;28;20103;-71
2023/05/01 08:20:14;;;;;;;9.65;8.65;;;;;;;;;;10042711;28;20063;-71
2023/05/01 08:25:08;;;;;;;10.27;9.07;;;;;;;;;;10028338;28;21330;-70
2023/05/01 08:30:05;;;;;;;12.25;9.05;;;;;;;;;;10030807;28;20056;-70
2023/05/01 08:34:59;;;;;;;10.32;9.05;;;;;;;;;;10031981;28;20505;-67
2023/05/01 08:39:52;;;;;;;10.25;8.88;;;;;;;;;;10044834;28;20049;-68
2023/05/01 08:44:46;;;;;;;10.55;8.57;;;;;;;;;;10051685;28;20052;-71
2023/05/01 08:49:41;;;;;;;8.90;7.93;;;;;;;;;;10032775;28;20072;-68
2023/05/01 08:54:37;;;;;;;8.63;7.68;;;;;;;;;;10039769;28;20088;-69
2023/05/01 08:59:33;;;;;;;12.63;7.80;;;;;;;;;;10031186;28;20493;-68
2023/05/01 09:04:31;;;;;;;8.32;7.43;;;;;;;;;;10036692;28;20060;-67
2023/05/01 09:09:25;;;;;;;8.13;6.93;;;;;;;;;;10031816;28;20505;-65
2023/05/01 09:14:19;;;;;;;9.63;7.30;;;;;;;;;;10034686;28;20072;-67
2023/05/01 09:19:13;;;;;;;9.57;7.10;;;;;;;;;;10026914;28;20054;-67
2023/05/01 09:24:07;;;;;;;9.50;6.90;;;;;;;;;;10040551;28;20046;-67
2023/05/01 09:29:01;;;;;;;13.18;7.53;;;;;;;;;;10039107;28;20421;-67
2023/05/01 09:33:58;;;;;;;8.20;7.25;;;;;;;;;;10033663;28;20060;-66
2023/05/01 09:38:51;;;;;;;10.43;6.47;;;;;;;;;;10033370;28;20050;-66
2023/05/01 09:44:08;;;;;;;9.75;8.68;;;;;;;;;;10046892;28;20087;-64
2023/05/01 09:49:02;;;;;;;8.35;7.22;;;;;;;;;;10043466;28;20070;-66
2023/05/01 09:53:59;;;;;;;7.78;6.63;;;;;;;;;;10037735;28;20575;-64
2023/05/01 09:58:53;;;;;;;7.65;6.85;;;;;;;;;;10040306;28;20062;-64
2023/05/01 10:03:53;;;;;;;8.05;6.10;;;;;;;;;;10049865;28;20064;-66
2023/05/01 10:08:48;;;;;;;9.63;6.25;;;;;;;;;;10043500;28;20050;-66
2023/05/01 10:13:41;;;;;;;6.63;4.82;;;;;;;;;;10046756;28;20061;-67
2023/05/01 10:18:35;;;;;;;10.77;4.97;;;;;;;;;;10055193;28;20053;-64
2023/05/01 10:23:29;;;;;;;6.30;4.55;;;;;;;;;;10042153;28;20065;-68
2023/05/01 10:28:24;;;;;;;9.27;5.25;;;;;;;;;;10041683;28;20096;-65
2023/05/01 10:33:17;;;;;;;5.20;4.70;;;;;;;;;;10044039;28;20525;-66
2023/05/01 10:38:37;;;;;;;10.77;6.00;;;;;;;;;;10052771;28;20041;-66
2023/05/01 10:43:30;;;;;;;6.47;5.82;;;;;;;;;;10053522;28;20049;-67
2023/05/01 10:48:39;;;;;;;10.85;5.97;;;;;;;;;;10061419;28;20045;-67
2023/05/01 10:53:32;;;;;;;;;;;;;;;;;;10048022;28;20049;-67
2023/05/01 10:58:38;;;;;;;8.27;6.40;;;;;;;;;;10048449;28;20380;-67
2023/05/01 11:03:30;;;;;;;7.47;6.70;;;;;;;;;;10052518;28;20397;-66
2023/05/01 11:08:37;;;;;;;8.45;6.55;;;;;;;;;;10041137;28;20168;-67
2023/05/01 11:13:58;;;;;;;9.23;6.55;;;;;;;;;;10044653;28;20056;-67
2023/05/01 11:18:52;;;;;;;8.27;6.45;;;;;;;;;;10050614;28;20404;-67
2023/05/01 11:23:46;;;;;;;7.07;6.30;;;;;;;;;;10051979;28;20140;-67
2023/05/01 11:28:41;;;;;;;8.30;7.43;;;;;;;;;;10053662;28;20416;-66
2023/05/01 11:33:34;;;;;;;13.93;7.38;;;;;;;;;;10044160;28;20058;-66
2023/05/01 11:38:28;;;;;;;9.02;7.07;;;;;;;;;;10033061;28;20053;-66
2023/05/01 11:43:22;;;;;;;13.05;8.30;;;;;;;;;;10046499;28;20049;-66
2023/05/01 11:48:16;;;;;;;11.57;7.97;;;;;;;;;;10046455;28;20489;-66
2023/05/01 11:53:11;;;;;;;10.75;7.32;;;;;;;;;;10044853;28;20391;-66
2023/05/01 11:58:06;;;;;;;8.82;7.50;;;;;;;;;;10049762;28;20092;-67
2023/05/01 12:03:12;;;;;;;8.10;6.63;;;;;;;;;;10046691;28;20055;-67
2023/05/01 12:08:17;;;;;;;8.15;7.35;;;;;;;;;;10040069;28;20424;-67
2023/05/01 12:13:13;;;;;;;8.55;7.20;;;;;;;;;;10047068;28;20081;-67
2023/05/01 12:18:07;;;;;;;11.32;9.43;;;;;;;;;;10039337;28;20402;-67
2023/05/01 12:23:03;;;;;;;10.65;8.40;;;;;;;;;;10049453;28;20104;-67
2023/05/01 12:27:58;;;;;;;8.90;7.80;;;;;;;;;;10038647;28;20137;-68
2023/05/01 12:32:52;;;;;;;8.45;7.65;;;;;;;;;;10043096;28;20075;-68
2023/05/01 12:37:46;;;;;;;11.40;7.57;;;;;;;;;;10045745;28;20084;-67
2023/05/01 12:42:41;;;;;;;14.40;7.60;;;;;;;;;;10046040;28;20127;-67
2023/05/01 12:47:36;;;;;;;12.00;8.10;;;;;;;;;;10037058;28;20053;-67
2023/05/01 12:52:31;;;;;;;13.93;8.13;;;;;;;;;;10050509;28;20057;-66
2023/05/01 12:57:26;;;;;;;11.88;8.07;;;;;;;;;;10034167;28;20050;-67
2023/05/01 13:02:19;;;;;;;10.23;8.60;;;;;;;;;;10044705;28;20116;-67
2023/05/01 13:07:17;;;;;;;9.88;8.40;;;;;;;;;;10043779;28;20053;-68
2023/05/01 13:12:11;;;;;;;12.47;8.57;;;;;;;;;;10045478;28;20105;-67
2023/05/01 13:17:08;;;;;;;11.93;8.18;;;;;;;;;;10046406;28;20041;-70
2023/05/01 13:22:01;;;;;;;9.98;9.02;;;;;;;;;;10047176;28;20061;-70
2023/05/01 13:27:00;;;;;;;8.98;8.07;;;;;;;;;;10045426;28;20084;-72
2023/05/01 13:31:56;;;;;;;13.23;7.90;;;;;;;;;;10045195;28;20045;-71
2023/05/01 13:36:49;;;;;;;8.98;7.68;;;;;;;;;;10045939;28;20489;-72
2023/05/01 13:41:43;;;;;;;11.60;9.75;;;;;;;;;;10044801;28;20045;-72
2023/05/01 13:46:36;;;;;;;20.58;11.07;;;;;;;;;;10054695;28;20077;-72
2023/05/01 13:51:31;;;;;;;13.13;8.10;;;;;;;;;;10059368;28;20660;-73
2023/05/01 13:56:24;;;;;;;10.15;8.68;;;;;;;;;;10055384;28;20052;-72
2023/05/01 14:01:20;;;;;;;14.02;9.13;;;;;;;;;;10057215;28;20060;-71
2023/05/01 14:06:16;;;;;;;11.43;8.68;;;;;;;;;;10061462;28;20041;-71
2023/05/01 14:11:08;;;;;;;11.80;9.10;;;;;;;;;;10068693;28;20052;-79
2023/05/01 14:16:25;;;;;;;10.88;8.93;;;;;;;;;;10043777;28;20061;-71
2023/05/01 14:21:19;;;;;;;12.85;8.52;;;;;;;;;;10041769;28;20104;-71
2023/05/01 14:26:18;;;;;;;13.13;11.13;;;;;;;;;;10037705;28;20061;-72
2023/05/01 14:31:29;;;;;;;19.42;15.68;;;;;;;;;;10041974;28;20075;-72
2023/05/01 14:36:23;;;;;;;11.65;8.05;;;;;;;;;;10043254;28;20065;-72
2023/05/01 14:41:18;;;;;;;11.43;7.93;;;;;;;;;;10049359;28;20535;-73
2023/05/01 14:46:12;;;;;;;10.10;9.05;;;;;;;;;;10062326;28;20073;-73
2023/05/01 14:51:09;;;;;;;8.98;8.02;;;;;;;;;;10059738;28;20061;-72
2023/05/01 14:56:02;;;;;;;9.60;7.82;;;;;;;;;;10035882;28;20049;-76
2023/05/01 15:00:56;;;;;;;9.82;8.65;;;;;;;;;;10058654;28;20054;-70
2023/05/01 15:05:51;;;;;;;10.07;8.23;;;;;;;;;;10040668;28;20048;-78
2023/05/01 15:10:45;;;;;;;12.98;9.10;;;;;;;;;;10055786;28;20100;-72
2023/05/01 15:15:38;;;;;;;13.52;9.25;;;;;;;;;;10057906;28;20471;-73
2023/05/01 15:20:31;;;;;;;10.77;8.57;;;;;;;;;;10039411;28;20053;-70
2023/05/01 15:25:24;;;;;;;10.50;8.90;;;;;;;;;;10053033;28;20045;-72
2023/05/01 15:30:17;;;;;;;10.35;8.65;;;;;;;;;;10037881;28;20053;-67
2023/05/01 15:35:11;;;;;;;10.52;9.50;;;;;;;;;;10032901;28;20100;-68
2023/05/01 15:40:08;;;;;;;11.30;10.20;;;;;;;;;;10041665;28;20042;-67
2023/05/01 15:45:02;;;;;;;20.38;10.00;;;;;;;;;;10043228;28;20057;-72
2023/05/01 15:49:55;;;;;;;11.63;10.23;;;;;;;;;;10039265;28;20061;-68
2023/05/01 15:54:50;;;;;;;12.00;9.85;;;;;;;;;;10065998;28;20095;-68
2023/05/01 15:59:44;;;;;;;11.95;10.43;;;;;;;;;;10057850;28;20485;-69
2023/05/01 16:04:37;;;;;;;11.93;10.32;;;;;;;;;;10044123;28;20053;-70
2023/05/01 16:09:31;;;;;;;13.07;9.77;;;;;;;;;;10047671;28;20057;-66
2023/05/01 16:14:25;;;;;;;12.30;11.02;;;;;;;;;;10047775;28;20420;-67
2023/05/01 16:19:19;;;;;;;12.82;11.43;;;;;;;;;;10045960;28;20063;-72
2023/05/01 16:24:12;;;;;;;11.45;10.38;;;;;;;;;;10036879;28;20046;-77
2023/05/01 16:29:06;;;;;;;12.77;11.45;;;;;;;;;;10040752;28;20501;-83
2023/05/01 16:34:01;;;;;;;13.05;11.25;;;;;;;;;;10031738;28;20061;-72
2023/05/01 16:38:54;;;;;;;9.82;8.90;;;;;;;;;;10045555;28;20045;-79
2023/05/01 16:43:46;;;;;;;9.27;8.20;;;;;;;;;;10050357;28;20045;-81
2023/05/01 16:48:40;;;;;;;10.43;8.68;;;;;;;;;;10057042;28;20136;-78
2023/05/01 16:53:33;;;;;;;9.18;7.65;;;;;;;;;;10029470;28;20067;-78
2023/05/01 16:58:27;;;;;;;9.45;7.93;;;;;;;;;;10051692;28;20045;-73
2023/05/01 17:03:21;;;;;;;12.27;7.78;;;;;;;;;;10045496;28;20077;-68
2023/05/01 17:08:16;;;;;;;10.40;9.27;;;;;;;;;;10031398;28;20084;-67
2023/05/01 17:13:09;;;;;;;11.65;10.45;;;;;;;;;;10040988;28;20435;-67
2023/05/01 17:18:04;;;;;;;9.70;8.80;;;;;;;;;;10033607;28;20108;-68
2023/05/01 17:22:57;;;;;;;9.65;8.48;;;;;;;;;;10039385;28;20061;-67
2023/05/01 17:27:52;;;;;;;8.65;7.32;;;;;;;;;;10035936;28;20413;-66
2023/05/01 17:32:46;;;;;;;8.35;6.88;;;;;;;;;;10039551;28;20049;-67
2023/05/01 17:37:40;;;;;;;10.10;7.97;;;;;;;;;;10045337;28;20053;-67
2023/05/01 17:42:37;;;;;;;8.90;8.00;;;;;;;;;;10038620;28;20056;-67
2023/05/01 17:47:34;;;;;;;9.02;7.63;;;;;;;;;;10031686;28;20057;-66
2023/05/01 17:52:28;;;;;;;12.18;7.93;;;;;;;;;;10039728;28;20104;-67
2023/05/01 17:57:22;;;;;;;10.75;8.60;;;;;;;;;;10036799;28;20065;-71
2023/05/01 18:02:15;;;;;;;9.55;7.47;;;;;;;;;;10036059;28;20061;-71
2023/05/01 18:07:09;;;;;;;8.80;7.25;;;;;;;;;;10030578;28;20069;-79
2023/05/01 18:12:03;;;;;;;7.35;6.65;;;;;;;;;;10034244;28;20060;-78
2023/05/01 18:16:57;;;;;;;9.00;8.00;;;;;;;;;;10043030;28;20049;-75
2023/05/01 18:21:50;;;;;;;7.78;7.07;;;;;;;;;;10047047;28;20037;-75
2023/05/01 18:26:44;;;;;;;9.63;7.63;;;;;;;;;;10044116;28;20063;-73
2023/05/01 18:31:37;;;;;;;9.40;8.50;;;;;;;;;;10053815;28;20050;-72
2023/05/01 18:36:30;;;;;;;11.50;7.55;;;;;;;;;;10042993;28;20452;-73
2023/05/01 18:41:26;;;;;;;7.40;6.70;;;;;;;;;;10046946;28;20064;-72
2023/05/01 18:46:20;;;;;;;7.25;6.53;;;;;;;;;;10056337;28;20056;-72
2023/05/01 18:51:15;;;;;;;8.02;7.30;;;;;;;;;;10045136;28;20050;-73
2023/05/01 18:56:09;;;;;;;9.40;8.23;;;;;;;;;;10050930;28;20050;-81
2023/05/01 19:01:02;;;;;;;10.02;8.88;;;;;;;;;;10041302;28;20424;-78
2023/05/01 19:05:56;;;;;;;11.35;8.00;;;;;;;;;;10046132;28;20488;-73
2023/05/01 19:10:51;;;;;;;9.55;8.65;;;;;;;;;;10048318;28;20045;-73
2023/05/01 19:15:45;;;;;;;8.82;8.02;;;;;;;;;;10053494;28;20145;-76
2023/05/01 19:20:38;;;;;;;7.80;7.10;;;;;;;;;;10050991;28;20041;-75
2023/05/01 19:25:34;;;;;;;11.40;8.35;;;;;;;;;;10058525;28;20053;-75
2023/05/01 19:30:28;;;;;;;9.57;8.18;;;;;;;;;;10058599;28;20076;-71
2023/05/01 19:35:21;;;;;;;11.80;10.60;;;;;;;;;;10052708;28;20045;-74
2023/05/01 19:40:15;;;;;;;10.20;9.00;;;;;;;;;;10043678;28;20552;-72
2023/05/01 19:45:10;;;;;;;10.77;9.68;;;;;;;;;;10044824;28;20099;-73
2023/05/01 19:50:03;;;;;;;10.18;9.18;;;;;;;;;;10068163;28;20049;-72
2023/05/01 19:54:57;;;;;;;10.48;9.38;;;;;;;;;;10052500;28;20049;-73
2023/05/01 19:59:53;;;;;;;12.43;11.00;;;;;;;;;;10056654;28;20053;-76
2023/05/01 20:04:46;;;;;;;12.80;11.50;;;;;;;;;;10046100;28;20053;-73
2023/05/01 20:09:40;;;;;;;12.25;10.95;;;;;;;;;;10043340;28;20053;-77
2023/05/01 20:14:33;;;;;;;12.25;10.75;;;;;;;;;;10044756;28;20049;-73
2023/05/01 20:19:27;;;;;;;14.15;11.45;;;;;;;;;;10042039;28;20416;-73
2023/05/01 20:24:21;;;;;;;10.93;9.82;;;;;;;;;;10035286;28;20045;-73
2023/05/01 20:29:15;;;;;;;10.13;9.13;;;;;;;;;;10039107;28;20050;-72
2023/05/01 20:34:08;;;;;;;11.90;10.52;;;;;;;;;;10050610;28;20398;-72
2023/05/01 20:39:02;;;;;;;14.10;12.75;;;;;;;;;;10058310;28;20133;-75
2023/05/01 20:43:56;;;;;;;14.98;12.38;;;;;;;;;;10061424;28;20046;-75
2023/05/01 20:48:50;;;;;;;13.20;11.95;;;;;;;;;;10041291;28;20535;-73
2023/05/01 20:53:45;;;;;;;12.77;11.40;;;;;;;;;;10041999;28;20100;-73
2023/05/01 20:58:38;;;;;;;10.73;9.68;;;;;;;;;;10036812;28;20052;-73
2023/05/01 21:03:32;;;;;;;11.27;10.27;;;;;;;;;;10028427;28;20417;-73
2023/05/01 21:08:29;;;;;;;12.10;10.80;;;;;;;;;;10038309;28;20096;-72
2023/05/01 21:13:23;;;;;;;10.75;9.65;;;;;;;;;;10039446;28;20061;-71
2023/05/01 21:18:19;;;;;;;11.27;10.18;;;;;;;;;;10038017;28;20041;-71
2023/05/01 21:23:16;;;;;;;11.18;10.18;;;;;;;;;;10042243;28;20049;-71
2023/05/01 21:28:10;;;;;;;10.15;9.13;;;;;;;;;;10039787;28;20117;-71
2023/05/01 21:33:05;;;;;;;11.10;10.00;;;;;;;;;;10045922;28;20049;-71
2023/05/01 21:37:59;;;;;;;10.95;9.90;;;;;;;;;;10040391;28;20053;-70
2023/05/01 21:42:55;;;;;;;11.48;10.38;;;;;;;;;;10043353;28;20053;-72
2023/05/01 21:47:53;;;;;;;12.70;10.63;;;;;;;;;;10043512;28;20057;-69
2023/05/01 21:52:49;;;;;;;12.27;11.18;;;;;;;;;;10059852;28;20053;-70
2023/05/01 21:57:43;;;;;;;12.15;9.02;;;;;;;;;;10044438;28;20103;-70
2023/05/01 22:02:40;;;;;;;8.80;8.00;;;;;;;;;;10039564;28;20397;-70
2023/05/01 22:07:39;;;;;;;7.97;6.85;;;;;;;;;;10033811;28;20141;-69
2023/05/01 22:12:33;;;;;;;8.85;7.88;;;;;;;;;;10052588;28;20103;-70
2023/05/01 22:17:32;;;;;;;10.50;7.35;;;;;;;;;;10051839;28;20058;-71
2023/05/01 22:22:27;;;;;;;6.68;6.07;;;;;;;;;;10054985;28;20081;-71
2023/05/01 22:27:21;;;;;;;6.18;5.60;;;;;;;;;;10051932;28;20050;-71
2023/05/01 22:32:15;;;;;;;6.50;5.88;;;;;;;;;;10054659;28;20046;-71
2023/05/01 22:37:09;;;;;;;6.80;6.20;;;;;;;;;;10059447;28;20103;-71
2023/05/01 22:42:03;;;;;;;6.45;5.85;;;;;;;;;;10058253;28;20128;-70
2023/05/01 22:46:58;;;;;;;6.82;6.22;;;;;;;;;;10053237;28;20068;-71
2023/05/01 22:51:51;;;;;;;7.78;6.82;;;;;;;;;;10044191;28;20489;-70
2023/05/01 22:56:45;;;;;;;8.90;7.47;;;;;;;;;;10049137;28;20471;-70
2023/05/01 23:01:39;;;;;;;6.53;5.90;;;;;;;;;;10037991;28;20057;-71
2023/05/01 23:06:32;;;;;;;8.02;7.07;;;;;;;;;;10044938;28;20053;-71
2023/05/01 23:11:33;;;;;;;7.82;7.03;;;;;;;;;;10042433;28;20104;-71
2023/05/01 23:16:25;;;;;;;6.18;5.55;;;;;;;;;;10051480;28;20068;-71
2023/05/01 23:21:18;;;;;;;22.08;7.55;;;;;;;;;;10048514;28;20104;-71
2023/05/01 23:26:21;;;;;;;5.95;4.95;;;;;;;;;;10056343;28;20465;-78
2023/05/01 23:31:23;;;;;;;5.90;5.30;;;;;;;;;;10048102;28;20591;-77
2023/05/01 23:36:17;;;;;;;5.93;5.20;;;;;;;;;;10040625;28;20075;-78
2023/05/01 23:41:10;;;;;;;5.50;4.88;;;;;;;;;;10056263;28;20061;-76
2023/05/01 23:46:06;;;;;;;6.55;4.57;;;;;;;;;;10053319;28;20060;-76
2023/05/01 23:51:00;;;;;;;5.70;5.07;;;;;;;;;;10053022;28;20087;-72
2023/05/01 23:55:54;;;;;;;6.60;4.88;;;;;;;;;;10057176;28;20046;-71
